Portada
METAR-TAF:

METAR-TAF

Aeroports :

La Ceiba, Hondures

latitud: 15-44N, longitud: 086-52W, altitud: 3 m

Observació

L'informe es va fer fa 1 hora i 5 minuts, a les 17:00 UTC
Vent 9 kt del Nord/Nord-Est
Temperatura 30°C
Humitat 66%
Pressió 1016 hPa
Visibilitat 10 km o més
Escasses núvols a una alçada de 2800 ft
Cel ennuvolat a una alçada de 20000 ft

METAR: MHLC 171700Z 02009KT 9999 FEW028 BKN200 30/23 Q1016 A3000 NOSIG

Hora: 12:05 (18:05 UTC)

Pronòstic

L'informe es va fer fa 1 hora i 5 minuts, a les 17:00 UTC
Pronòstic vàlid del 17 a les 18 UTC al 18 a les 18 UTC
Vent 12 kt del Est/Nord-Est
Visibilitat 10 km o més
Escasses núvols a una alçada de 3000 ft
Evolucionant progressivament
l' 18 a les 01 UTC al 18 a les 03 UTC
Vent 3 kt amb direcció variable
Evolucionant progressivament
l' 18 a les 15 UTC al 18 a les 17 UTC
Vent 10 kt del Nord-Est

TAF: MHLC 171700Z 1718/1818 07012KT 9999 FEW030 TX31/1719Z TN23/1812Z BECMG 1801/1803 VRB03KT BECMG 1815/1817 04010KT

Observacions i pronòstics meteorològics de més de 4000 aeroports (METAR i TAF).

Les estacions disponibles són els punts grocs i vermells al mapa.

Posi el ratolí al punt desitjat per veure el nom de l'estació.

Feu clic per veure les observacions i els pronòstics meteorològics.

Per canviar el mapa: feu clic els botons verds amb una creu de color negre per apropar; al botó verd amb un guió per allunyar la imatge; o en les fletxes verdes per a mapes adjacents.


METAR-TAF: